Time;durP1;ratioP1;P1;durP2;ratioP2;P2;SDS_P1;SDS_P2;PMS_P1;PMS_P2;Temp;Humidity;BMP_temperature;BMP_pressure;BME280_temperature;BME280_humidity;BME280_pressure;Samples;Min_cycle;Max_cycle;Signal;HPM_P1;HPM_P2
2023/10/10 00:02:20;;;;;;;4.95;4.18;;;29.00;99.90;;;;;;5035331;28;20060;-46
2023/10/10 00:04:54;;;;;;;5.45;3.78;;;28.90;99.90;;;;;;5035099;28;20026;-46
2023/10/10 00:07:20;;;;;;;5.07;4.03;;;28.90;99.90;;;;;;5035004;28;20504;-46
2023/10/10 00:09:46;;;;;;;4.60;3.92;;;28.90;99.90;;;;;;5034951;28;20494;-46
2023/10/10 00:12:19;;;;;;;4.40;4.00;;;28.90;99.90;;;;;;5034799;28;20033;-46
2023/10/10 00:14:50;;;;;;;6.13;4.10;;;28.90;99.90;;;;;;5016986;28;20108;-46
2023/10/10 00:17:17;;;;;;;4.57;3.63;;;28.90;99.90;;;;;;5034834;28;20018;-46
2023/10/10 00:19:52;;;;;;;4.47;4.07;;;28.90;99.90;;;;;;5034827;28;20021;-46
2023/10/10 00:22:25;;;;;;;4.43;3.33;;;28.90;99.90;;;;;;5034707;28;20068;-46
2023/10/10 00:24:51;;;;;;;6.15;3.97;;;28.90;99.90;;;;;;5034052;28;20115;-47
2023/10/10 00:27:16;;;;;;;4.97;4.20;;;28.90;99.90;;;;;;5034528;28;20084;-45
2023/10/10 00:29:42;;;;;;;4.75;4.05;;;28.80;99.90;;;;;;5034647;28;20049;-46
2023/10/10 00:32:16;;;;;;;4.90;4.40;;;28.90;99.90;;;;;;5034712;28;20030;-46
2023/10/10 00:34:48;;;;;;;4.35;3.95;;;28.80;99.90;;;;;;5034687;28;20388;-46
2023/10/10 00:37:29;;;;;;;5.50;4.25;;;28.80;99.90;;;;;;5034225;28;20036;-46
2023/10/10 00:40:00;;;;;;;4.65;4.07;;;28.80;99.90;;;;;;5034258;28;20040;-46
2023/10/10 00:42:41;;;;;;;4.68;4.22;;;28.80;99.90;;;;;;5034384;28;20033;-47
2023/10/10 00:45:14;;;;;;;5.65;4.25;;;28.80;99.90;;;;;;5034197;28;20022;-46
2023/10/10 00:47:50;;;;;;;5.82;4.32;;;28.80;99.90;;;;;;5034315;28;20175;-46
2023/10/10 00:50:24;;;;;;;4.03;3.58;;;28.80;99.90;;;;;;5034172;28;20021;-46
2023/10/10 00:53:00;;;;;;;4.72;3.60;;;28.80;99.90;;;;;;5034264;28;20339;-46
2023/10/10 00:55:33;;;;;;;3.95;3.47;;;28.80;99.90;;;;;;5034178;28;20076;-46
2023/10/10 00:58:00;;;;;;;4.72;4.22;;;28.70;99.90;;;;;;5034112;28;20499;-46
2023/10/10 01:00:29;;;;;;;4.50;3.65;;;28.70;99.90;;;;;;5068532;22;20048;-51
2023/10/10 01:03:01;;;;;;;4.90;3.83;;;28.70;99.90;;;;;;5033721;28;20041;-49
2023/10/10 01:05:52;;;;;;;5.05;3.72;;;28.70;99.90;;;;;;5033872;28;20032;-49
2023/10/10 01:08:26;;;;;;;4.90;3.95;;;28.70;99.90;;;;;;5033881;28;20152;-52
2023/10/10 01:10:56;;;;;;;4.30;3.80;;;28.70;99.90;;;;;;5033581;28;20491;-49
2023/10/10 01:13:22;;;;;;;3.72;3.42;;;28.70;99.90;;;;;;5033746;28;20021;-49
2023/10/10 01:15:48;;;;;;;4.35;3.88;;;28.70;99.90;;;;;;5033702;28;20025;-50
2023/10/10 01:18:15;;;;;;;3.88;3.53;;;28.70;99.90;;;;;;5033865;28;20028;-50
2023/10/10 01:20:50;;;;;;;4.35;3.80;;;28.70;99.90;;;;;;5033556;28;20033;-50
2023/10/10 01:23:18;;;;;;;6.80;3.72;;;28.60;99.90;;;;;;5033523;28;20056;-50
2023/10/10 01:25:45;;;;;;;4.13;3.70;;;28.60;99.90;;;;;;5033535;28;20025;-51
2023/10/10 01:28:23;;;;;;;5.03;4.07;;;28.60;99.90;;;;;;5033574;28;20067;-51
2023/10/10 01:36:16;;;;;;;3.95;3.53;;;28.60;99.90;;;;;;5032607;28;20040;-50
2023/10/10 01:39:07;;;;;;;4.57;3.77;;;28.60;99.90;;;;;;5033375;28;20068;-50
2023/10/10 01:41:39;;;;;;;4.38;3.75;;;28.60;99.90;;;;;;5033160;28;20048;-50
2023/10/10 01:44:12;;;;;;;5.53;3.50;;;28.60;99.90;;;;;;5032947;28;20025;-50
2023/10/10 01:46:40;;;;;;;4.10;3.33;;;28.60;99.90;;;;;;5033091;28;20033;-50
2023/10/10 01:49:29;;;;;;;4.28;3.42;;;28.60;99.90;;;;;;5032981;28;20020;-50
2023/10/10 01:51:58;;;;;;;5.53;3.78;;;28.60;99.90;;;;;;5033040;28;20370;-50
2023/10/10 01:54:39;;;;;;;4.78;3.75;;;28.50;99.90;;;;;;5032932;28;20036;-50
2023/10/10 01:57:07;;;;;;;4.80;3.75;;;28.50;99.90;;;;;;5032612;28;20511;-50
2023/10/10 01:59:41;;;;;;;4.72;3.75;;;28.60;99.90;;;;;;5032786;28;20030;-50
2023/10/10 02:02:13;;;;;;;3.95;3.53;;;28.50;99.90;;;;;;5060156;22;20943;-45
2023/10/10 02:04:39;;;;;;;4.18;3.78;;;28.50;99.90;;;;;;5052769;28;20108;-45
2023/10/10 02:07:23;;;;;;;5.20;3.45;;;28.50;99.90;;;;;;5052769;28;20488;-46
2023/10/10 02:12:38;;;;;;;5.45;3.92;;;28.50;99.90;;;;;;5052923;28;20040;-46
2023/10/10 02:15:18;;;;;;;5.80;3.53;;;28.50;99.90;;;;;;5052603;28;20021;-46
2023/10/10 02:17:56;;;;;;;4.10;3.65;;;28.50;99.90;;;;;;5052642;28;20017;-46
2023/10/10 02:23:24;;;;;;;4.60;3.65;;;28.50;99.90;;;;;;5052456;28;20032;-46
2023/10/10 02:25:46;;;;;;;3.80;3.40;;;28.40;99.90;;;;;;5052075;28;20473;-46
2023/10/10 02:30:46;;;;;;;4.40;3.42;;;28.50;99.90;;;;;;5052491;28;20028;-46
2023/10/10 02:33:31;;;;;;;4.00;3.40;;;28.40;99.90;;;;;;5052216;28;20533;-47
2023/10/10 02:35:57;;;;;;;5.05;3.80;;;28.40;99.90;;;;;;5052267;28;20044;-44
2023/10/10 02:38:39;;;;;;;4.35;3.80;;;28.40;99.90;;;;;;5052205;28;20418;-44
2023/10/10 02:46:42;;;;;;;3.85;3.45;;;28.30;99.90;;;;;;5052027;28;20389;-45
2023/10/10 02:49:12;;;;;;;3.72;3.33;;;28.30;99.90;;;;;;5051937;28;20476;-45
2023/10/10 02:51:48;;;;;;;4.43;3.60;;;28.30;99.90;;;;;;5052014;28;20036;-45
2023/10/10 02:56:49;;;;;;;5.80;3.67;;;28.30;99.90;;;;;;5052127;28;20036;-45
2023/10/10 02:59:22;;;;;;;3.63;3.30;;;28.30;99.90;;;;;;5050786;28;20029;-45
2023/10/10 03:01:57;;;;;;;3.78;3.38;;;28.30;99.90;;;;;;5063850;23;20053;-56
2023/10/10 03:04:52;;;;;;;4.20;3.80;;;28.30;99.90;;;;;;5051929;28;20104;-56
2023/10/10 03:07:10;;;;;;;4.20;3.17;;;28.30;99.90;;;;;;5051139;28;20055;-56
2023/10/10 03:09:42;;;;;;;4.22;3.40;;;28.30;99.90;;;;;;5051644;28;20457;-56
2023/10/10 03:12:17;;;;;;;5.35;3.53;;;28.30;99.90;;;;;;5051634;28;20055;-56
2023/10/10 03:14:44;;;;;;;3.78;3.33;;;28.30;99.90;;;;;;5051605;28;20358;-56
2023/10/10 03:17:31;;;;;;;4.28;3.47;;;28.30;99.90;;;;;;5051617;28;20065;-56
2023/10/10 03:20:13;;;;;;;3.55;3.13;;;28.20;99.90;;;;;;5051400;28;20059;-56
2023/10/10 03:25:28;;;;;;;5.32;3.33;;;28.30;99.90;;;;;;5051481;28;20036;-56
2023/10/10 03:28:05;;;;;;;3.22;2.85;;;28.30;99.90;;;;;;5051718;28;20017;-54
2023/10/10 03:30:49;;;;;;;4.25;3.15;;;28.30;99.90;;;;;;5051652;28;20022;-58
2023/10/10 03:33:29;;;;;;;3.92;3.08;;;28.30;99.90;;;;;;5051677;28;20447;-56
2023/10/10 03:36:44;;;;;;;3.47;3.17;;;28.30;99.90;;;;;;5051541;28;20025;-56
2023/10/10 05:25:21;;;;;;;3.53;2.88;;;28.00;99.90;;;;;;5033170;28;20036;-55
2023/10/10 05:27:47;;;;;;;3.38;2.78;;;28.00;99.90;;;;;;5033383;28;20373;-55
2023/10/10 05:30:23;;;;;;;4.13;2.90;;;27.90;99.90;;;;;;5033299;28;20083;-55
2023/10/10 05:33:03;;;;;;;3.72;3.05;;;27.90;99.90;;;;;;5033208;28;20022;-55
2023/10/10 05:35:36;;;;;;;4.13;2.75;;;27.90;99.90;;;;;;5033693;28;20021;-55
2023/10/10 05:38:04;;;;;;;3.50;2.90;;;27.90;99.90;;;;;;5033133;28;20017;-55
2023/10/10 05:40:33;;;;;;;3.60;2.50;;;27.90;99.90;;;;;;5033009;28;20036;-55
2023/10/10 05:43:03;;;;;;;3.85;3.25;;;27.90;99.90;;;;;;5033147;28;20392;-55
2023/10/10 05:45:29;;;;;;;3.53;3.17;;;27.90;99.90;;;;;;5032907;28;20358;-55
2023/10/10 05:47:55;;;;;;;5.03;2.97;;;27.90;99.90;;;;;;5033188;28;20022;-55
2023/10/10 05:50:22;;;;;;;4.38;2.85;;;27.90;99.90;;;;;;5032611;28;20022;-55
2023/10/10 05:52:51;;;;;;;3.90;3.08;;;27.90;99.90;;;;;;5032760;28;20028;-55
2023/10/10 05:55:17;;;;;;;4.43;3.03;;;27.90;99.90;;;;;;5032757;28;20029;-55
2023/10/10 05:57:43;;;;;;;4.00;3.03;;;27.90;99.90;;;;;;5032642;28;20021;-55
2023/10/10 06:00:11;;;;;;;4.15;3.10;;;27.90;99.90;;;;;;5032701;28;20029;-55
2023/10/10 06:02:37;;;;;;;;;;;27.90;99.90;;;;;;5032833;28;20037;-55
2023/10/10 06:05:04;;;;;;;3.70;2.95;;;27.90;99.90;;;;;;5032680;28;20000;-55
2023/10/10 06:07:31;;;;;;;3.13;2.80;;;27.90;99.90;;;;;;5015102;28;20028;-55
2023/10/10 06:09:58;;;;;;;3.42;3.05;;;27.90;99.90;;;;;;5015069;28;20030;-55
2023/10/10 06:12:26;;;;;;;4.55;3.30;;;27.90;99.90;;;;;;5032504;28;20420;-55
2023/10/10 06:14:54;;;;;;;3.67;3.20;;;27.90;99.90;;;;;;5014523;28;20025;-55
2023/10/10 06:17:23;;;;;;;3.75;2.83;;;27.90;99.90;;;;;;5032402;28;20068;-55
2023/10/10 06:19:50;;;;;;;6.30;3.33;;;27.80;99.90;;;;;;5032147;28;20037;-55
2023/10/10 06:22:16;;;;;;;6.68;2.88;;;27.80;99.90;;;;;;5031980;28;20018;-55
2023/10/10 06:24:43;;;;;;;5.93;3.10;;;27.80;99.90;;;;;;5032283;28;20041;-55
2023/10/10 06:27:11;;;;;;;4.95;3.50;;;27.80;99.90;;;;;;5032235;28;20017;-55
2023/10/10 06:29:40;;;;;;;12.10;3.30;;;27.80;99.90;;;;;;5032322;28;20037;-56
2023/10/10 06:32:10;;;;;;;10.15;3.70;;;27.80;99.90;;;;;;5032067;28;20021;-55
2023/10/10 06:34:36;;;;;;;8.00;3.55;;;27.80;99.90;;;;;;5032116;28;20055;-55
2023/10/10 06:37:07;;;;;;;9.02;3.47;;;27.80;99.90;;;;;;5032184;28;20053;-54
2023/10/10 06:39:54;;;;;;;12.00;4.20;;;27.80;99.90;;;;;;5031933;28;20029;-55
2023/10/10 06:42:29;;;;;;;9.50;3.78;;;27.80;99.90;;;;;;5032026;28;20120;-55
2023/10/10 06:44:55;;;;;;;11.05;3.45;;;27.80;99.90;;;;;;5014304;28;20438;-55
2023/10/10 06:47:21;;;;;;;8.35;3.47;;;27.80;99.90;;;;;;5032064;28;20026;-55
2023/10/10 06:49:56;;;;;;;4.53;3.13;;;27.80;99.90;;;;;;5014498;28;20045;-55
2023/10/10 06:52:23;;;;;;;7.53;3.13;;;27.80;99.90;;;;;;5031930;28;20059;-55
2023/10/10 06:54:55;;;;;;;3.97;2.90;;;27.80;99.90;;;;;;5031993;28;20043;-55
2023/10/10 06:57:44;;;;;;;4.28;3.10;;;27.80;99.90;;;;;;5031815;28;20048;-55
2023/10/10 07:02:48;;;;;;;7.60;3.58;;;27.70;99.90;;;;;;5051081;28;20041;-55
2023/10/10 07:05:19;;;;;;;4.22;3.10;;;27.80;99.90;;;;;;5051621;28;20033;-55
2023/10/10 07:07:46;;;;;;;3.88;2.78;;;27.80;99.90;;;;;;5051809;28;20083;-55
2023/10/10 07:10:24;;;;;;;7.28;3.30;;;27.80;99.90;;;;;;5051686;28;20104;-55
2023/10/10 07:12:57;;;;;;;7.90;3.05;;;27.80;99.90;;;;;;5051515;28;20020;-55
2023/10/10 07:15:24;;;;;;;7.60;3.25;;;27.80;99.90;;;;;;5051573;28;20496;-55
2023/10/10 07:18:04;;;;;;;8.30;3.35;;;27.80;99.90;;;;;;5051583;28;20104;-55
2023/10/10 07:23:16;;;;;;;5.55;2.85;;;27.80;99.90;;;;;;5045833;28;20024;-55
2023/10/10 07:25:57;;;;;;;3.92;2.83;;;27.80;99.90;;;;;;5051442;28;20388;-54
2023/10/10 07:28:26;;;;;;;6.03;4.00;;;27.80;99.90;;;;;;5051455;28;20438;-55
2023/10/10 07:30:52;;;;;;;3.72;3.25;;;27.80;99.90;;;;;;5033914;28;20047;-56
2023/10/10 07:33:22;;;;;;;4.23;2.87;;;27.90;99.90;;;;;;5051382;28;20076;-55
2023/10/10 07:35:55;;;;;;;4.35;2.97;;;27.90;99.90;;;;;;5055216;28;20052;-55
2023/10/10 07:38:28;;;;;;;5.07;2.88;;;27.90;99.90;;;;;;5055227;28;20017;-55
2023/10/10 07:40:54;;;;;;;5.07;3.13;;;27.90;99.90;;;;;;5055054;28;20103;-55
2023/10/10 07:43:27;;;;;;;5.22;3.13;;;27.90;99.90;;;;;;5055213;28;20468;-55
2023/10/10 07:45:54;;;;;;;5.25;2.97;;;27.90;99.90;;;;;;5055082;28;20029;-55
2023/10/10 07:50:55;;;;;;;4.75;3.10;;;28.00;99.90;;;;;;5055029;28;20032;-55
2023/10/10 07:53:31;;;;;;;4.57;3.22;;;28.00;99.90;;;;;;5037054;28;20449;-55
2023/10/10 07:56:02;;;;;;;3.92;2.40;;;28.00;99.90;;;;;;5037535;28;20032;-55
2023/10/10 07:58:44;;;;;;;4.03;3.08;;;28.00;99.90;;;;;;5054832;28;20362;-55
2023/10/10 08:01:16;;;;;;;3.70;2.70;;;28.00;99.90;;;;;;5054607;28;20095;-55
2023/10/10 08:03:46;;;;;;;3.90;2.92;;;28.10;99.90;;;;;;5054943;28;20025;-55
2023/10/10 08:06:22;;;;;;;4.90;3.17;;;28.10;99.90;;;;;;5055013;28;20029;-55
2023/10/10 08:09:10;;;;;;;3.95;2.45;;;28.10;99.90;;;;;;5054761;28;20052;-54
2023/10/10 08:11:36;;;;;;;3.88;3.17;;;28.10;99.90;;;;;;5054771;28;20481;-55
2023/10/10 08:14:07;;;;;;;5.10;3.35;;;28.10;99.90;;;;;;5054670;28;20029;-55
2023/10/10 08:16:34;;;;;;;4.70;3.00;;;28.20;99.90;;;;;;5055087;28;20021;-55
2023/10/10 08:19:10;;;;;;;4.15;3.00;;;28.20;99.90;;;;;;5054560;28;20393;-55
2023/10/10 08:21:38;;;;;;;4.65;3.20;;;28.20;99.90;;;;;;5055031;28;20108;-55
2023/10/10 08:24:08;;;;;;;5.65;2.63;;;28.20;99.90;;;;;;5054866;28;20017;-55
2023/10/10 08:26:40;;;;;;;5.38;3.30;;;28.20;99.90;;;;;;5054745;28;20025;-55
2023/10/10 08:29:11;;;;;;;4.07;3.00;;;28.20;99.90;;;;;;5054791;28;20056;-55
2023/10/10 08:31:42;;;;;;;4.68;3.58;;;28.30;99.90;;;;;;5054712;28;20025;-55
2023/10/10 08:34:09;;;;;;;4.90;3.05;;;28.30;99.90;;;;;;5054482;28;20526;-55
2023/10/10 08:36:37;;;;;;;5.30;3.15;;;28.30;99.90;;;;;;5054807;28;20017;-54
2023/10/10 08:39:25;;;;;;;4.72;3.08;;;28.30;99.90;;;;;;5054404;28;20156;-55
2023/10/10 08:41:53;;;;;;;6.63;2.65;;;28.30;99.90;;;;;;5054353;28;20053;-55
2023/10/10 08:44:19;;;;;;;10.50;2.92;;;28.30;99.90;;;;;;5054202;28;20384;-55
2023/10/10 08:46:46;;;;;;;4.35;3.25;;;28.30;99.90;;;;;;5035918;28;20025;-55
2023/10/10 08:49:14;;;;;;;5.82;2.90;;;28.40;99.90;;;;;;5054082;28;20484;-55
2023/10/10 08:51:42;;;;;;;3.58;3.00;;;28.40;99.90;;;;;;5036292;28;20025;-54
2023/10/10 08:54:09;;;;;;;5.80;3.30;;;28.40;99.90;;;;;;5054349;28;20025;-54
2023/10/10 08:56:43;;;;;;;3.97;3.22;;;28.50;99.90;;;;;;5054377;28;20472;-55
2023/10/10 08:59:12;;;;;;;7.22;3.15;;;28.40;99.90;;;;;;5036139;28;20382;-54
2023/10/10 09:01:38;;;;;;;4.85;2.80;;;28.50;99.90;;;;;;5045414;28;20441;-54
2023/10/10 09:04:05;;;;;;;4.85;3.13;;;28.50;99.90;;;;;;5016499;28;20048;-55
2023/10/10 09:12:12;;;;;;;3.88;2.85;;;28.50;99.90;;;;;;5033678;28;20053;-55
2023/10/10 09:14:49;;;;;;;5.10;2.80;;;28.50;99.90;;;;;;5033882;28;20028;-55
2023/10/10 09:17:29;;;;;;;4.03;2.83;;;28.50;99.90;;;;;;5033547;28;20541;-56
2023/10/10 09:19:57;;;;;;;5.13;3.10;;;28.60;99.90;;;;;;5033474;28;20363;-55
2023/10/10 09:22:34;;;;;;;4.03;2.90;;;28.60;99.90;;;;;;5033581;28;20465;-55
2023/10/10 09:25:17;;;;;;;4.38;3.40;;;28.60;99.90;;;;;;5033428;28;20037;-55
2023/10/10 09:27:59;;;;;;;4.43;2.80;;;28.60;99.90;;;;;;5033490;28;20068;-55
2023/10/10 09:30:45;;;;;;;3.55;2.67;;;28.70;99.90;;;;;;5033556;28;20021;-55
2023/10/10 09:35:58;;;;;;;4.50;3.00;;;28.70;99.90;;;;;;5033297;28;20049;-56
2023/10/10 09:38:27;;;;;;;4.45;2.83;;;28.70;99.90;;;;;;5033180;28;20477;-55
2023/10/10 09:41:10;;;;;;;4.93;3.22;;;28.80;99.90;;;;;;5033074;28;20389;-56
2023/10/10 09:44:00;;;;;;;5.03;2.67;;;28.80;99.90;;;;;;5015564;28;20061;-55
2023/10/10 09:46:36;;;;;;;4.68;3.10;;;28.80;99.90;;;;;;5033096;28;20030;-56
2023/10/10 09:52:49;;;;;;;4.93;3.33;;;29.00;99.90;;;;;;5015401;28;20029;-56
2023/10/10 09:54:25;;;;;;;3.55;2.92;;;28.90;99.90;;;;;;5032667;28;20041;-57
2023/10/10 09:56:53;;;;;;;4.80;2.97;;;29.00;99.90;;;;;;5031869;28;20036;-56
2023/10/10 09:59:20;;;;;;;6.07;3.17;;;29.00;99.90;;;;;;5032516;28;20132;-55
2023/10/10 10:01:59;;;;;;;5.00;3.40;;;29.00;99.90;;;;;;5014460;28;20072;-56
2023/10/10 10:04:28;;;;;;;6.30;2.78;;;29.10;99.90;;;;;;5032474;28;20033;-56
2023/10/10 10:07:27;;;;;;;4.78;3.05;;;29.10;99.90;;;;;;5032566;28;20035;-55
2023/10/10 10:10:09;;;;;;;4.97;3.30;;;29.10;99.90;;;;;;5032481;28;20021;-55
2023/10/10 10:13:09;;;;;;;3.30;2.70;;;29.20;99.90;;;;;;5032360;28;20470;-55
2023/10/10 10:15:55;;;;;;;4.30;3.38;;;29.20;99.90;;;;;;5032394;28;20025;-55
2023/10/10 10:18:44;;;;;;;5.53;3.22;;;29.20;99.90;;;;;;5032363;28;20389;-55
2023/10/10 10:21:19;;;;;;;5.32;3.30;;;29.30;99.90;;;;;;5032668;28;20072;-55
2023/10/10 10:23:47;;;;;;;4.68;3.13;;;29.30;99.90;;;;;;5032335;28;20013;-56
2023/10/10 10:26:41;;;;;;;4.65;3.20;;;29.40;99.90;;;;;;4998253;28;20021;-55
2023/10/10 10:29:15;;;;;;;;;;;29.40;99.90;;;;;;5032085;28;20041;-55
2023/10/10 10:31:49;;;;;;;3.92;2.90;;;29.40;99.90;;;;;;5032535;28;20279;-55
2023/10/10 10:34:31;;;;;;;3.70;3.20;;;29.50;99.90;;;;;;5032049;28;20377;-56
2023/10/10 10:37:13;;;;;;;4.90;3.13;;;29.50;99.90;;;;;;5032057;28;20450;-55
2023/10/10 10:40:09;;;;;;;5.10;2.83;;;29.50;99.90;;;;;;5032158;28;20030;-55
2023/10/10 10:42:27;;;;;;;3.35;3.05;;;29.50;99.90;;;;;;5031841;28;20366;-55
2023/10/10 10:47:45;;;;;;;4.82;3.42;;;29.60;99.90;;;;;;5031947;28;20021;-56
2023/10/10 10:50:40;;;;;;;3.47;2.78;;;29.60;99.90;;;;;;5032089;28;20141;-56
2023/10/10 10:53:08;;;;;;;4.22;3.38;;;29.60;99.90;;;;;;5031830;28;20109;-55
2023/10/10 10:55:41;;;;;;;7.47;3.42;;;29.70;99.90;;;;;;5031853;28;20022;-55
2023/10/10 10:58:52;;;;;;;3.80;3.08;;;29.70;99.90;;;;;;5031743;28;20029;-56
2023/10/10 11:01:16;;;;;;;4.85;3.47;;;29.70;99.90;;;;;;5028408;28;20053;-56
2023/10/10 11:03:44;;;;;;;4.82;3.25;;;29.70;99.90;;;;;;5031984;28;20072;-56
2023/10/10 11:06:14;;;;;;;5.07;2.90;;;29.70;99.90;;;;;;5031828;28;20017;-56
2023/10/10 11:11:40;;;;;;;4.85;2.83;;;29.80;99.90;;;;;;5035957;28;20032;-56
2023/10/10 11:14:18;;;;;;;4.65;3.05;;;29.90;99.90;;;;;;5035836;28;20029;-56
2023/10/10 11:16:45;;;;;;;4.47;3.10;;;29.90;99.90;;;;;;5035830;28;20056;-56
2023/10/10 11:21:56;;;;;;;6.10;3.60;;;29.90;99.90;;;;;;5035855;28;19995;-55
2023/10/10 11:24:29;;;;;;;4.00;3.50;;;29.90;99.90;;;;;;5035710;28;20037;-55
2023/10/10 11:29:45;;;;;;;;;;;30.00;99.90;;;;;;5035937;28;20048;-56
2023/10/10 11:32:15;;;;;;;4.32;3.28;;;30.00;99.90;;;;;;5035480;28;20004;-56
2023/10/10 11:34:44;;;;;;;4.75;3.40;;;30.00;99.90;;;;;;5035838;28;20029;-57
2023/10/10 11:37:14;;;;;;;4.65;3.65;;;30.00;99.90;;;;;;5035344;28;20026;-56
2023/10/10 11:39:52;;;;;;;4.72;3.65;;;30.00;99.90;;;;;;5035320;28;20041;-56
2023/10/10 11:42:33;;;;;;;7.57;3.67;;;30.00;99.90;;;;;;5035325;28;20500;-56
2023/10/10 11:45:07;;;;;;;4.63;3.50;;;30.10;99.90;;;;;;5035280;28;20029;-56
2023/10/10 11:47:42;;;;;;;4.43;3.45;;;30.10;99.90;;;;;;5035105;28;20025;-56
2023/10/10 11:50:11;;;;;;;4.68;3.78;;;30.20;99.90;;;;;;5034857;28;20029;-56
2023/10/10 11:52:57;;;;;;;4.45;3.65;;;30.20;99.90;;;;;;5035003;28;20056;-56
2023/10/10 11:55:27;;;;;;;5.80;3.63;;;30.20;99.90;;;;;;5034968;28;20032;-56
2023/10/10 11:58:06;;;;;;;4.28;3.60;;;30.20;99.90;;;;;;5035033;28;20377;-56
2023/10/10 12:00:42;;;;;;;4.20;3.40;;;30.20;99.90;;;;;;5035013;28;20072;-56
2023/10/10 12:03:31;;;;;;;6.97;4.13;;;30.30;99.90;;;;;;5035012;28;20052;-56
2023/10/10 12:05:59;;;;;;;4.68;3.55;;;30.20;99.90;;;;;;5034928;28;20025;-56
2023/10/10 12:08:26;;;;;;;5.18;3.78;;;30.30;99.90;;;;;;5035019;28;20026;-56
2023/10/10 12:10:56;;;;;;;6.63;4.03;;;30.30;99.90;;;;;;5035008;28;20475;-56
2023/10/10 12:13:33;;;;;;;4.93;3.92;;;30.30;99.90;;;;;;5035038;28;20079;-56
2023/10/10 12:16:11;;;;;;;5.05;3.90;;;30.30;99.90;;;;;;5034892;28;20025;-56
2023/10/10 12:18:49;;;;;;;5.70;3.35;;;30.30;99.90;;;;;;5034936;28;20049;-56
2023/10/10 12:21:19;;;;;;;5.35;4.03;;;30.30;99.90;;;;;;5034158;28;20393;-56
2023/10/10 12:23:48;;;;;;;4.95;3.72;;;30.30;99.90;;;;;;5034903;28;20014;-55
2023/10/10 12:26:14;;;;;;;5.70;3.90;;;30.40;99.90;;;;;;5034892;28;20026;-55
2023/10/10 12:28:43;;;;;;;5.25;4.13;;;30.40;99.90;;;;;;5034626;28;20025;-56
2023/10/10 12:31:15;;;;;;;5.28;3.83;;;30.40;99.90;;;;;;5034801;28;20404;-56
2023/10/10 12:33:45;;;;;;;6.18;4.10;;;30.40;99.90;;;;;;5034441;28;20022;-56
2023/10/10 12:36:11;;;;;;;6.15;4.45;;;30.50;99.90;;;;;;5034422;28;20493;-55
2023/10/10 12:38:40;;;;;;;4.22;3.53;;;30.40;99.90;;;;;;5034201;28;20029;-55
2023/10/10 12:41:06;;;;;;;4.85;3.70;;;30.50;99.90;;;;;;5034222;28;20034;-55
2023/10/10 12:43:32;;;;;;;4.78;3.90;;;30.50;99.90;;;;;;5034348;28;20033;-55
2023/10/10 12:46:01;;;;;;;5.85;3.90;;;30.50;99.90;;;;;;5034296;28;20458;-56
2023/10/10 12:48:28;;;;;;;4.22;3.63;;;30.50;99.90;;;;;;5034171;28;20026;-56
2023/10/10 12:50:54;;;;;;;4.22;3.83;;;30.50;99.90;;;;;;5034146;28;20028;-56
2023/10/10 12:53:20;;;;;;;5.05;4.25;;;30.50;99.90;;;;;;5034399;28;20033;-55
2023/10/10 12:55:55;;;;;;;5.28;3.97;;;30.50;99.90;;;;;;5034388;28;20029;-56
2023/10/10 12:58:22;;;;;;;6.63;3.88;;;30.50;99.90;;;;;;5034298;28;20060;-56
2023/10/10 13:00:52;;;;;;;4.95;3.35;;;30.50;99.90;;;;;;5035549;28;20033;-55
2023/10/10 13:03:32;;;;;;;5.88;3.90;;;30.60;99.90;;;;;;5053814;28;20090;-56
2023/10/10 13:06:00;;;;;;;5.18;3.97;;;30.60;99.90;;;;;;5035927;28;20021;-56
2023/10/10 13:08:38;;;;;;;7.43;4.55;;;30.60;99.90;;;;;;5019688;28;20045;-56
2023/10/10 13:11:12;;;;;;;4.38;3.60;;;30.60;99.90;;;;;;5053862;28;20036;-55
2023/10/10 13:13:45;;;;;;;4.55;4.00;;;30.60;99.90;;;;;;5053992;28;20369;-57
2023/10/10 13:19:20;;;;;;;7.70;4.13;;;30.60;99.90;;;;;;4972785;28;20122;-56
2023/10/10 13:21:53;;;;;;;4.82;4.05;;;30.60;99.90;;;;;;5039472;28;20041;-56
2023/10/10 13:24:20;;;;;;;4.30;3.55;;;30.70;99.90;;;;;;5053773;28;20071;-56
2023/10/10 13:26:49;;;;;;;6.50;3.88;;;30.70;99.90;;;;;;5053384;28;20036;-56
2023/10/10 13:29:16;;;;;;;6.13;4.13;;;30.70;99.90;;;;;;5053373;28;20021;-56
2023/10/10 13:31:44;;;;;;;5.80;4.05;;;30.70;99.90;;;;;;5052397;28;20025;-56
2023/10/10 13:34:11;;;;;;;3.83;3.47;;;30.70;99.90;;;;;;5035319;28;20393;-56
2023/10/10 13:36:37;;;;;;;4.07;3.60;;;30.70;99.90;;;;;;5053246;28;20029;-56
2023/10/10 13:39:07;;;;;;;4.72;3.78;;;30.70;99.90;;;;;;5053180;28;20024;-56
2023/10/10 13:41:35;;;;;;;6.03;4.07;;;30.70;99.90;;;;;;5053175;28;20064;-56
2023/10/10 13:44:03;;;;;;;6.30;4.05;;;30.70;99.90;;;;;;5045121;28;20032;-56
2023/10/10 13:46:37;;;;;;;4.90;4.25;;;30.70;99.90;;;;;;5053445;28;20031;-56
2023/10/10 13:49:04;;;;;;;4.65;3.85;;;30.70;99.90;;;;;;5052937;28;20023;-56
2023/10/10 13:51:39;;;;;;;5.13;3.92;;;30.70;99.90;;;;;;5052761;28;20071;-56
2023/10/10 13:54:05;;;;;;;4.82;4.10;;;30.70;99.90;;;;;;5053085;28;20439;-56
2023/10/10 13:56:31;;;;;;;5.00;4.05;;;30.70;99.90;;;;;;5053027;28;20024;-56
2023/10/10 13:58:58;;;;;;;4.47;3.22;;;30.70;99.90;;;;;;5035246;28;20500;-57
2023/10/10 14:01:29;;;;;;;4.35;3.92;;;30.70;99.90;;;;;;5034691;28;20045;-55
2023/10/10 14:04:04;;;;;;;5.38;3.60;;;30.70;99.90;;;;;;5052550;28;20025;-56
2023/10/10 14:06:45;;;;;;;4.57;3.53;;;30.70;99.90;;;;;;5053010;28;20084;-56
2023/10/10 14:09:21;;;;;;;5.75;4.10;;;30.70;99.90;;;;;;5045910;28;20380;-55
2023/10/10 14:11:51;;;;;;;4.78;3.45;;;30.70;99.90;;;;;;5052609;28;20028;-55
2023/10/10 14:14:18;;;;;;;4.35;3.60;;;30.70;99.90;;;;;;5052375;28;20017;-55
2023/10/10 14:16:44;;;;;;;4.70;3.80;;;30.80;99.90;;;;;;5052574;28;20021;-56
2023/10/10 14:19:10;;;;;;;3.70;3.30;;;30.80;99.90;;;;;;5052563;28;20036;-55
2023/10/10 14:21:38;;;;;;;5.45;3.92;;;30.70;99.90;;;;;;5052534;28;20040;-55
2023/10/10 14:24:07;;;;;;;5.80;3.85;;;30.70;99.90;;;;;;5034425;28;20025;-56
2023/10/10 14:26:36;;;;;;;4.82;3.65;;;30.80;99.90;;;;;;5052204;28;20025;-55
2023/10/10 14:29:06;;;;;;;4.40;3.80;;;30.80;99.90;;;;;;5044160;28;20476;-55
2023/10/10 14:31:34;;;;;;;4.80;3.97;;;30.80;99.90;;;;;;5052240;28;20108;-55
2023/10/10 14:34:01;;;;;;;6.45;3.97;;;30.80;99.90;;;;;;5052144;28;20029;-56
2023/10/10 14:36:30;;;;;;;3.83;3.42;;;30.80;99.90;;;;;;5052095;28;20028;-56
2023/10/10 14:38:57;;;;;;;4.10;3.63;;;30.80;99.90;;;;;;5052017;28;20030;-56
2023/10/10 14:41:32;;;;;;;4.00;3.50;;;30.70;99.90;;;;;;5051841;28;20035;-55
2023/10/10 14:44:01;;;;;;;4.85;3.50;;;30.80;99.90;;;;;;5051675;28;20472;-56
2023/10/10 14:46:31;;;;;;;4.57;3.70;;;30.80;99.90;;;;;;5051752;28;20032;-56
2023/10/10 14:49:06;;;;;;;4.95;3.45;;;30.80;99.90;;;;;;5051771;28;20044;-56
2023/10/10 14:51:34;;;;;;;4.90;4.25;;;30.80;99.90;;;;;;5051975;28;20048;-56
2023/10/10 14:54:06;;;;;;;4.05;3.50;;;30.80;99.90;;;;;;5051708;28;20020;-56
2023/10/10 14:56:36;;;;;;;5.45;3.47;;;30.80;99.90;;;;;;5051789;28;20032;-56
2023/10/10 14:59:04;;;;;;;4.55;3.67;;;30.80;99.90;;;;;;5051791;28;20021;-56
2023/10/10 15:01:34;;;;;;;4.35;3.45;;;30.80;99.90;;;;;;5051495;28;20094;-56
2023/10/10 15:04:04;;;;;;;4.63;3.60;;;30.80;99.90;;;;;;5051842;28;20495;-56
2023/10/10 15:06:33;;;;;;;4.88;3.63;;;30.80;99.90;;;;;;5051653;28;20442;-56
2023/10/10 15:09:00;;;;;;;6.05;3.95;;;30.80;99.90;;;;;;5051685;28;20483;-57
2023/10/10 15:11:30;;;;;;;4.10;3.53;;;30.80;99.90;;;;;;5051759;28;20026;-56
2023/10/10 15:13:57;;;;;;;4.65;3.63;;;30.80;99.90;;;;;;5051471;28;20037;-56
2023/10/10 15:16:23;;;;;;;4.68;3.95;;;30.80;99.90;;;;;;5051726;28;20465;-56
2023/10/10 15:18:52;;;;;;;7.38;3.97;;;30.80;99.90;;;;;;5051691;28;20032;-56
2023/10/10 15:21:21;;;;;;;4.50;3.50;;;30.80;99.90;;;;;;5051647;28;20357;-56
2023/10/10 15:23:47;;;;;;;6.80;3.95;;;30.80;99.90;;;;;;5051753;28;20103;-56
2023/10/10 15:26:20;;;;;;;6.57;4.15;;;30.80;99.90;;;;;;5051795;28;20128;-56
2023/10/10 15:28:46;;;;;;;5.05;3.80;;;30.80;99.90;;;;;;5051820;28;20044;-57
2023/10/10 15:31:13;;;;;;;4.10;3.53;;;30.80;99.90;;;;;;5051798;28;20048;-56
2023/10/10 15:33:47;;;;;;;4.93;3.97;;;30.80;99.90;;;;;;5051706;28;20028;-55
2023/10/10 15:36:16;;;;;;;4.40;3.80;;;30.80;99.90;;;;;;5051882;28;20033;-56
2023/10/10 15:38:43;;;;;;;4.53;3.78;;;30.80;99.90;;;;;;5051761;28;20032;-57
2023/10/10 15:41:20;;;;;;;4.20;3.70;;;30.70;99.90;;;;;;5051468;28;20029;-57
2023/10/10 15:43:49;;;;;;;;;;;30.70;99.90;;;;;;5052133;28;20123;-56
2023/10/10 15:46:16;;;;;;;5.95;3.38;;;30.70;99.90;;;;;;5051693;28;20360;-56
2023/10/10 15:48:48;;;;;;;4.38;3.67;;;30.70;99.90;;;;;;5051645;28;20029;-56
2023/10/10 15:51:20;;;;;;;4.93;3.80;;;30.80;99.90;;;;;;5051490;28;20082;-56
2023/10/10 15:53:47;;;;;;;6.25;3.60;;;30.70;99.90;;;;;;5051537;28;20105;-56
2023/10/10 15:56:17;;;;;;;7.45;4.35;;;30.70;99.90;;;;;;5053833;28;20053;-57
2023/10/10 15:58:50;;;;;;;4.65;4.10;;;30.70;99.90;;;;;;5055337;28;20065;-57